createdAt,value
2023-01-31T00:03:32.553Z,1.55
2023-01-31T00:08:35.491Z,1.53
2023-01-31T00:13:40.357Z,1.42
2023-01-31T00:18:44.273Z,1.24
2023-01-31T00:23:48.938Z,1.15
2023-01-31T00:28:54.657Z,1.11
2023-01-31T00:33:58.192Z,1.16
2023-01-31T00:39:03.941Z,1.18
2023-01-31T00:44:07.717Z,1.18
2023-01-31T00:49:10.669Z,1.20
2023-01-31T00:54:13.574Z,1.27
2023-01-31T00:59:16.605Z,1.34
2023-01-31T01:04:19.564Z,1.41
2023-01-31T01:09:22.949Z,1.45
2023-01-31T01:14:26.008Z,1.48
2023-01-31T01:19:28.944Z,1.51
2023-01-31T01:24:31.986Z,1.49
2023-01-31T01:29:35.315Z,1.55
2023-01-31T01:34:38.356Z,1.59
2023-01-31T01:39:41.505Z,1.61
2023-01-31T01:44:55.046Z,1.61
2023-01-31T01:50:28.017Z,1.56
2023-01-31T01:55:42.707Z,1.56
2023-01-31T02:00:47.305Z,1.54
2023-01-31T02:05:55.149Z,1.52
2023-01-31T02:11:21.555Z,1.48
2023-01-31T02:16:25.888Z,1.49
2023-01-31T02:22:16.067Z,1.49
2023-01-31T02:27:56.716Z,1.54
2023-01-31T02:33:19.434Z,1.54
2023-01-31T02:38:49.529Z,1.52
2023-01-31T02:44:29.925Z,1.54
2023-01-31T02:49:51.521Z,1.55
2023-01-31T02:55:33.304Z,1.55
2023-01-31T03:00:39.632Z,1.59
2023-01-31T03:05:42.972Z,1.61
2023-01-31T03:11:06.876Z,1.67
2023-01-31T03:16:39.429Z,1.77
2023-01-31T03:21:49.541Z,1.86
2023-01-31T03:26:58.954Z,1.85
2023-01-31T03:32:30.557Z,1.92
2023-01-31T03:37:52.414Z,1.96
2023-01-31T03:42:58.758Z,2.00
2023-01-31T03:48:04.133Z,1.96
2023-01-31T03:53:48.481Z,1.87
2023-01-31T03:58:57.740Z,1.81
2023-01-31T04:04:17.491Z,1.76
2023-01-31T04:09:23.024Z,1.76
2023-01-31T04:14:26.214Z,1.76
2023-01-31T04:19:30.281Z,1.70
2023-01-31T04:24:33.603Z,1.70
2023-01-31T04:29:36.672Z,1.63
2023-01-31T04:34:40.028Z,1.67
2023-01-31T04:39:43.819Z,1.70
2023-01-31T04:44:46.623Z,1.68
2023-01-31T04:49:49.625Z,1.64
2023-01-31T04:54:52.643Z,1.64
2023-01-31T04:59:55.532Z,1.64
2023-01-31T05:04:58.900Z,1.71
2023-01-31T05:10:01.999Z,1.78
2023-01-31T05:15:07.902Z,1.78
2023-01-31T05:20:11.712Z,1.72
2023-01-31T05:25:15.520Z,1.65
2023-01-31T05:30:19.041Z,1.64
2023-01-31T05:35:22.516Z,1.65
2023-01-31T05:40:25.785Z,1.61
2023-01-31T05:45:29.896Z,1.64
2023-01-31T05:50:33.137Z,1.59
2023-01-31T05:55:36.037Z,1.58
2023-01-31T06:00:41.411Z,1.55
2023-01-31T06:05:44.320Z,1.58
2023-01-31T06:10:47.258Z,1.58
2023-01-31T06:15:50.649Z,1.57
2023-01-31T06:20:54.497Z,1.53
2023-01-31T06:25:58.377Z,1.50
2023-01-31T06:31:10.863Z,1.45
2023-01-31T06:36:14.344Z,1.44
2023-01-31T06:41:21.676Z,1.45
2023-01-31T06:46:24.911Z,1.44
2023-01-31T06:51:28.011Z,1.48
2023-01-31T06:56:31.504Z,1.51
2023-01-31T07:01:34.294Z,1.56
2023-01-31T07:06:37.400Z,1.60
2023-01-31T07:11:40.504Z,1.69
2023-01-31T07:16:43.430Z,2.21
2023-01-31T07:21:49.063Z,3.00
2023-01-31T07:26:55.206Z,3.62
2023-01-31T07:31:58.223Z,3.97
2023-01-31T07:37:01.398Z,4.14
2023-01-31T07:42:04.298Z,4.17
2023-01-31T07:47:07.223Z,4.30
2023-01-31T07:52:10.027Z,4.31
2023-01-31T07:57:13.383Z,4.44
2023-01-31T08:02:36.668Z,4.50
2023-01-31T08:07:39.935Z,4.25
2023-01-31T08:12:42.901Z,4.15
2023-01-31T08:17:46.335Z,4.40
2023-01-31T08:22:49.797Z,4.80
2023-01-31T08:27:52.746Z,5.23
2023-01-31T08:32:56.750Z,5.57
2023-01-31T08:38:15.365Z,5.72
2023-01-31T08:43:18.823Z,5.94
2023-01-31T08:48:21.802Z,6.04
2023-01-31T08:53:24.622Z,6.05
2023-01-31T08:58:34.053Z,6.02
2023-01-31T09:03:37.356Z,6.21
2023-01-31T09:08:40.244Z,6.22
2023-01-31T09:13:43.900Z,6.23
2023-01-31T09:18:47.567Z,6.06
2023-01-31T09:23:57.544Z,6.28
2023-01-31T09:29:01.718Z,6.47
2023-01-31T09:34:04.775Z,6.89
2023-01-31T09:39:07.642Z,7.25
2023-01-31T09:44:33.297Z,6.70
2023-01-31T09:50:12.427Z,5.87
2023-01-31T09:55:25.525Z,5.16
2023-01-31T10:00:54.484Z,4.71
2023-01-31T10:06:23.949Z,5.02
2023-01-31T10:12:18.086Z,4.95
2023-01-31T10:17:34.211Z,4.81
2023-01-31T10:23:02.574Z,4.63
2023-01-31T10:28:24.714Z,4.77
2023-01-31T10:34:12.192Z,4.81
2023-01-31T10:39:25.401Z,4.75
2023-01-31T10:45:03.913Z,4.76
2023-01-31T10:50:27.664Z,4.88
2023-01-31T10:55:55.340Z,5.17
2023-01-31T11:00:59.158Z,5.14
2023-01-31T11:06:02.270Z,5.24
2023-01-31T11:11:13.449Z,5.30
2023-01-31T11:16:17.579Z,5.37
2023-01-31T11:21:26.450Z,5.69
2023-01-31T11:26:37.903Z,5.90
2023-01-31T11:31:43.450Z,6.06
2023-01-31T11:36:47.318Z,6.18
2023-01-31T11:41:50.651Z,6.20
2023-01-31T11:47:05.274Z,6.04
2023-01-31T11:52:16.671Z,5.66
2023-01-31T11:57:29.224Z,5.35
2023-01-31T12:03:08.710Z,5.08
2023-01-31T12:08:43.600Z,4.92
2023-01-31T12:14:01.151Z,4.86
2023-01-31T12:19:13.370Z,4.94
2023-01-31T12:25:00.488Z,4.88
2023-01-31T12:30:53.254Z,4.83
2023-01-31T12:36:32.373Z,4.79
2023-01-31T12:41:59.283Z,4.74
2023-01-31T12:47:39.781Z,4.67
2023-01-31T12:53:18.097Z,4.63
2023-01-31T12:58:39.551Z,4.49
2023-01-31T13:03:46.038Z,4.39
2023-01-31T13:09:20.222Z,4.32
2023-01-31T13:14:29.733Z,4.29
2023-01-31T13:19:32.584Z,4.38
2023-01-31T13:24:42.739Z,4.38
2023-01-31T13:30:08.522Z,4.43
2023-01-31T13:35:32.518Z,4.55
2023-01-31T13:41:02.079Z,4.62
2023-01-31T13:46:10.275Z,4.64
2023-01-31T13:51:30.031Z,4.63
2023-01-31T13:56:36.814Z,4.52
2023-01-31T14:01:49.880Z,4.50
2023-01-31T14:07:06.715Z,4.45
2023-01-31T14:12:18.369Z,4.25
2023-01-31T14:17:30.095Z,4.09
2023-01-31T14:22:36.475Z,3.98
2023-01-31T14:28:02.810Z,3.87
2023-01-31T14:33:12.469Z,3.89
2023-01-31T14:38:44.343Z,3.92
2023-01-31T14:44:08.505Z,3.87
2023-01-31T14:49:48.897Z,3.81
2023-01-31T14:55:31.337Z,3.72
2023-01-31T15:00:38.853Z,3.65
2023-01-31T15:05:56.759Z,3.58
2023-01-31T15:11:02.385Z,3.53
2023-01-31T15:16:30.551Z,3.46
2023-01-31T15:21:52.031Z,3.40
2023-01-31T15:26:56.695Z,3.36
2023-01-31T15:32:14.185Z,3.31
2023-01-31T15:37:31.920Z,3.25
2023-01-31T15:42:34.970Z,3.09
2023-01-31T15:47:37.995Z,2.97
2023-01-31T15:52:40.977Z,2.82
2023-01-31T15:57:57.143Z,2.75
2023-01-31T16:03:01.878Z,2.68
2023-01-31T16:08:20.815Z,2.62
2023-01-31T16:13:25.238Z,2.54
2023-01-31T16:18:28.378Z,2.48
2023-01-31T16:23:36.168Z,2.45
2023-01-31T16:28:47.850Z,2.45
2023-01-31T16:33:57.610Z,2.46
2023-01-31T16:39:07.777Z,2.48
2023-01-31T16:44:19.726Z,2.49
2023-01-31T16:49:36.281Z,2.50
2023-01-31T16:55:02.560Z,2.54
2023-01-31T17:00:28.501Z,2.61
2023-01-31T17:05:42.844Z,2.66
2023-01-31T17:10:47.984Z,2.67
2023-01-31T17:15:51.356Z,2.69
2023-01-31T17:20:54.663Z,2.68
2023-01-31T17:25:57.414Z,2.68
2023-01-31T17:31:00.569Z,2.71
2023-01-31T17:36:03.973Z,2.72
2023-01-31T17:41:13.901Z,2.74
2023-01-31T17:46:18.958Z,2.75
2023-01-31T17:51:21.896Z,2.76
2023-01-31T17:56:24.936Z,2.78
2023-01-31T18:01:27.983Z,2.82
2023-01-31T18:06:31.121Z,2.81
2023-01-31T18:11:34.469Z,2.78
2023-01-31T18:16:37.460Z,2.76
2023-01-31T18:21:44.000Z,2.77
2023-01-31T18:26:53.590Z,2.79
2023-01-31T18:31:57.929Z,2.81
2023-01-31T18:37:06.634Z,2.83
2023-01-31T18:42:09.517Z,2.90
2023-01-31T18:47:14.318Z,2.87
2023-01-31T18:52:17.642Z,2.88
2023-01-31T18:57:20.727Z,2.87
2023-01-31T19:02:23.702Z,2.90
2023-01-31T19:07:27.567Z,2.91
2023-01-31T19:12:30.530Z,2.89
2023-01-31T19:17:33.716Z,2.83
2023-01-31T19:22:36.645Z,2.77
2023-01-31T19:27:40.955Z,2.72
2023-01-31T19:32:43.871Z,2.62
2023-01-31T19:37:46.770Z,2.56
2023-01-31T19:42:49.991Z,2.42
2023-01-31T19:47:52.984Z,2.27
2023-01-31T19:52:56.140Z,2.10
2023-01-31T19:58:00.709Z,2.01
2023-01-31T20:03:03.879Z,1.98
2023-01-31T20:08:07.807Z,1.91
2023-01-31T20:13:10.922Z,1.84
2023-01-31T20:18:13.879Z,1.77
2023-01-31T20:23:16.750Z,1.69
2023-01-31T20:28:20.861Z,1.62
2023-01-31T20:33:24.033Z,1.53
2023-01-31T20:38:28.062Z,1.41
2023-01-31T20:43:31.115Z,1.32
2023-01-31T20:48:34.263Z,1.26
2023-01-31T20:53:37.796Z,1.25
2023-01-31T20:58:43.270Z,1.21
2023-01-31T21:03:46.060Z,1.17
2023-01-31T21:08:49.831Z,1.13
2023-01-31T21:13:52.782Z,1.13
2023-01-31T21:18:57.309Z,1.12
2023-01-31T21:24:00.747Z,1.15
2023-01-31T21:29:04.342Z,1.18
2023-01-31T21:34:07.259Z,1.21
2023-01-31T21:39:12.703Z,1.24
2023-01-31T21:44:15.542Z,1.29
2023-01-31T21:49:18.500Z,1.32
2023-01-31T21:54:21.642Z,1.36
2023-01-31T21:59:25.331Z,1.37
2023-01-31T22:04:28.235Z,1.42
2023-01-31T22:09:31.138Z,1.45
2023-01-31T22:14:34.220Z,1.50
2023-01-31T22:19:37.105Z,1.56
2023-01-31T22:24:40.425Z,1.60
2023-01-31T22:29:43.407Z,1.64
2023-01-31T22:34:46.421Z,1.70
2023-01-31T22:39:50.626Z,1.71
2023-01-31T22:44:53.545Z,1.75
2023-01-31T22:49:56.524Z,1.78
2023-01-31T22:54:59.478Z,1.82
2023-01-31T23:00:02.392Z,1.88
2023-01-31T23:05:09.703Z,1.95
2023-01-31T23:10:12.597Z,2.03
2023-01-31T23:15:16.094Z,2.11
2023-01-31T23:20:20.727Z,2.20
2023-01-31T23:25:27.999Z,2.26
2023-01-31T23:30:31.446Z,2.35
2023-01-31T23:35:34.469Z,2.39
2023-01-31T23:40:37.482Z,2.46
2023-01-31T23:45:40.544Z,2.57
2023-01-31T23:50:43.700Z,2.68
2023-01-31T23:55:46.776Z,2.74
